Time;durP1;ratioP1;P1;durP2;ratioP2;P2;SDS_P1;SDS_P2;PMS_P1;PMS_P2;Temp;Humidity;BMP_temperature;BMP_pressure;BME280_temperature;BME280_humidity;BME280_pressure;Samples;Min_cycle;Max_cycle;Signal;HPM_P1;HPM_P2
2023/01/13 00:02:13;;;;;;;2.47;0.40;;;9.40;64.00;;;;;;4974935;28;20033;-75
2023/01/13 00:04:39;;;;;;;2.13;0.60;;;9.40;64.00;;;;;;4975124;28;20163;-75
2023/01/13 00:07:05;;;;;;;0.95;0.30;;;9.40;64.20;;;;;;4992607;28;20026;-75
2023/01/13 00:09:31;;;;;;;3.03;0.80;;;9.40;64.50;;;;;;4992361;28;20496;-74
2023/01/13 00:11:57;;;;;;;1.80;0.63;;;9.40;64.20;;;;;;4991455;28;20075;-75
2023/01/13 00:14:25;;;;;;;4.03;0.70;;;9.30;64.30;;;;;;4974820;28;20046;-75
2023/01/13 00:16:51;;;;;;;2.15;0.50;;;9.30;64.50;;;;;;4991121;28;20018;-76
2023/01/13 00:19:17;;;;;;;2.58;0.60;;;9.30;64.30;;;;;;4992219;28;20042;-77
2023/01/13 00:21:44;;;;;;;1.88;0.50;;;9.30;64.50;;;;;;4974877;28;20030;-76
2023/01/13 00:24:09;;;;;;;3.80;0.77;;;9.30;64.30;;;;;;4975042;28;20034;-76
2023/01/13 00:26:35;;;;;;;2.35;0.38;;;9.40;64.10;;;;;;4974902;28;20046;-75
2023/01/13 00:29:01;;;;;;;1.08;0.22;;;9.40;64.00;;;;;;4974636;28;20022;-78
2023/01/13 00:31:28;;;;;;;1.20;0.50;;;9.40;64.20;;;;;;4974770;28;20117;-75
2023/01/13 00:34:00;;;;;;;2.53;0.40;;;9.40;64.10;;;;;;4974689;28;20070;-76
2023/01/13 00:36:27;;;;;;;2.00;0.30;;;9.30;64.20;;;;;;4974898;28;20030;-75
2023/01/13 00:38:53;;;;;;;1.90;0.65;;;9.40;64.20;;;;;;4974590;28;20034;-75
2023/01/13 00:41:21;;;;;;;1.95;0.30;;;9.40;64.50;;;;;;4991977;28;20382;-75
2023/01/13 00:43:48;;;;;;;2.20;0.52;;;9.40;64.30;;;;;;4992022;28;20019;-75
2023/01/13 00:46:18;;;;;;;1.23;0.50;;;9.40;64.40;;;;;;4990879;28;20040;-76
2023/01/13 00:48:45;;;;;;;2.63;0.40;;;9.40;64.50;;;;;;4992018;28;20019;-75
2023/01/13 00:51:14;;;;;;;4.45;0.57;;;9.40;64.50;;;;;;4991952;28;20049;-76
2023/01/13 00:53:42;;;;;;;5.57;0.60;;;9.30;64.40;;;;;;4991480;28;20046;-75
2023/01/13 00:56:15;;;;;;;1.90;0.40;;;9.40;64.70;;;;;;4974390;28;20026;-76
2023/01/13 00:58:41;;;;;;;1.30;0.60;;;9.30;64.70;;;;;;4974307;28;20034;-74
2023/01/13 01:01:10;;;;;;;0.82;0.32;;;9.40;64.70;;;;;;4991729;28;20022;-75
2023/01/13 01:03:36;;;;;;;4.10;0.57;;;9.40;64.60;;;;;;4991244;28;20109;-75
2023/01/13 01:06:08;;;;;;;2.50;0.70;;;9.30;64.80;;;;;;4973521;28;20061;-75
2023/01/13 01:08:34;;;;;;;1.17;0.32;;;9.30;65.00;;;;;;4973845;28;20030;-75
2023/01/13 01:11:02;;;;;;;4.57;0.65;;;9.30;64.90;;;;;;4974486;28;20060;-74
2023/01/13 01:13:27;;;;;;;3.13;0.50;;;9.30;65.80;;;;;;4991374;28;20387;-73
2023/01/13 01:15:53;;;;;;;3.60;0.43;;;9.30;65.00;;;;;;4976901;28;20026;-74
2023/01/13 01:18:18;;;;;;;3.08;0.47;;;9.30;65.00;;;;;;4987652;28;20083;-74
2023/01/13 01:20:44;;;;;;;1.20;0.47;;;9.30;65.10;;;;;;4993861;28;20026;-75
2023/01/13 01:23:09;;;;;;;2.80;0.40;;;9.30;65.00;;;;;;4991452;28;20490;-73
2023/01/13 01:25:35;;;;;;;1.20;0.20;;;9.30;64.90;;;;;;4973981;28;20061;-74
2023/01/13 01:28:01;;;;;;;3.53;0.35;;;9.30;65.10;;;;;;4973831;28;20019;-76
2023/01/13 01:30:26;;;;;;;3.83;0.50;;;9.30;65.10;;;;;;4973995;28;20022;-73
2023/01/13 01:32:52;;;;;;;2.67;0.60;;;9.30;65.10;;;;;;4973764;28;20113;-74
2023/01/13 01:35:17;;;;;;;4.45;0.77;;;9.30;65.40;;;;;;4991356;28;20534;-76
2023/01/13 01:37:43;;;;;;;2.60;0.70;;;9.30;65.50;;;;;;4973516;28;20075;-74
2023/01/13 01:40:09;;;;;;;2.17;0.65;;;9.30;65.50;;;;;;4990993;28;20026;-79
2023/01/13 01:45:21;;;;;;;1.75;0.43;;;9.30;64.90;;;;;;4991118;28;20112;-80
2023/01/13 01:47:50;;;;;;;4.25;0.65;;;9.40;64.90;;;;;;4973644;28;20030;-78
2023/01/13 01:50:18;;;;;;;1.25;0.40;;;9.30;65.20;;;;;;4991112;28;20428;-82
2023/01/13 01:52:48;;;;;;;3.40;0.30;;;9.30;65.40;;;;;;4991201;28;20091;-81
2023/01/13 01:55:19;;;;;;;4.40;0.70;;;9.30;65.40;;;;;;4991473;28;20045;-83
2023/01/13 01:58:00;;;;;;;2.17;0.57;;;9.30;65.50;;;;;;4974048;28;20038;-77
2023/01/13 02:00:27;;;;;;;1.30;0.38;;;9.40;65.20;;;;;;4990949;28;20018;-77
2023/01/13 02:02:54;;;;;;;2.88;0.60;;;9.40;65.20;;;;;;4973872;28;20103;-76
2023/01/13 02:05:20;;;;;;;2.83;0.60;;;9.40;64.90;;;;;;4973673;28;20029;-75
2023/01/13 02:07:48;;;;;;;2.20;0.45;;;9.40;65.10;;;;;;4976076;28;20030;-76
2023/01/13 02:10:17;;;;;;;2.45;0.60;;;9.40;65.10;;;;;;4975534;28;20117;-76
2023/01/13 02:12:44;;;;;;;2.55;0.43;;;9.30;65.30;;;;;;4974008;28;20060;-77
2023/01/13 02:15:16;;;;;;;2.35;0.73;;;9.40;65.20;;;;;;4973938;28;20432;-76
2023/01/13 02:18:19;;;;;;;1.15;0.40;;;9.40;65.20;;;;;;4991507;28;20030;-76
2023/01/13 02:20:57;;;;;;;5.25;0.88;;;9.40;65.20;;;;;;4976637;28;20118;-76
2023/01/13 02:26:59;;;;;;;2.30;0.40;;;9.40;65.10;;;;;;4994283;28;20056;-76
2023/01/13 02:32:33;;;;;;;1.90;0.30;;;9.40;65.20;;;;;;4993763;28;20084;-74
2023/01/13 02:35:13;;;;;;;3.08;0.50;;;9.40;65.40;;;;;;4976426;28;20030;-73
2023/01/13 02:37:42;;;;;;;2.40;0.60;;;9.30;65.40;;;;;;4976469;28;20026;-74
2023/01/13 02:40:16;;;;;;;0.80;0.38;;;9.40;65.40;;;;;;4978068;28;20152;-75
2023/01/13 02:46:13;;;;;;;1.48;0.32;;;9.40;65.70;;;;;;4993736;28;20068;-74
2023/01/13 02:48:43;;;;;;;2.83;0.40;;;9.40;65.40;;;;;;4992592;28;20026;-74
2023/01/13 02:51:14;;;;;;;1.73;0.30;;;9.40;65.70;;;;;;4993659;28;20129;-75
2023/01/13 02:53:50;;;;;;;1.60;0.30;;;9.40;66.10;;;;;;4972912;28;20086;-74
2023/01/13 02:56:19;;;;;;;2.15;0.35;;;9.40;67.10;;;;;;4973192;28;20474;-75
2023/01/13 02:58:46;;;;;;;4.55;0.57;;;9.30;67.30;;;;;;4972828;28;20031;-75
2023/01/13 03:01:12;;;;;;;3.50;0.73;;;9.30;68.20;;;;;;4973180;28;20030;-75
2023/01/13 03:03:38;;;;;;;1.30;0.30;;;9.30;67.40;;;;;;4974009;28;20061;-76
2023/01/13 03:06:15;;;;;;;3.65;0.32;;;9.30;67.30;;;;;;4972727;28;20050;-75
2023/01/13 03:08:53;;;;;;;0.88;0.32;;;9.40;67.00;;;;;;4974076;28;20031;-75
2023/01/13 03:11:20;;;;;;;2.67;0.68;;;9.30;67.20;;;;;;4974052;28;20031;-73
2023/01/13 03:13:51;;;;;;;3.92;0.68;;;9.30;67.30;;;;;;4973018;28;20126;-75
2023/01/13 03:16:20;;;;;;;1.70;0.28;;;9.30;67.30;;;;;;4972424;28;20463;-73
2023/01/13 03:19:15;;;;;;;2.58;0.47;;;9.20;67.70;;;;;;4972816;28;20125;-73
2023/01/13 03:22:10;;;;;;;2.08;0.28;;;9.20;68.20;;;;;;4967134;28;20035;-73
2023/01/13 03:24:50;;;;;;;1.27;0.32;;;9.10;68.80;;;;;;4972673;28;20027;-73
2023/01/13 03:27:34;;;;;;;1.55;0.50;;;9.10;69.20;;;;;;4972674;28;20049;-73
2023/01/13 03:30:12;;;;;;;2.58;0.20;;;9.00;69.30;;;;;;4971920;28;20080;-74
2023/01/13 03:32:52;;;;;;;0.60;0.25;;;9.00;69.40;;;;;;4972725;28;20027;-74
2023/01/13 03:35:24;;;;;;;3.60;0.40;;;9.00;69.20;;;;;;4972401;28;20682;-73
2023/01/13 03:37:59;;;;;;;0.77;0.40;;;9.00;69.10;;;;;;4972520;28;20018;-74
2023/01/13 03:40:30;;;;;;;3.28;0.40;;;9.00;69.40;;;;;;4972277;28;20122;-74
2023/01/13 03:45:52;;;;;;;2.08;0.45;;;8.90;69.40;;;;;;4973700;28;20034;-74
2023/01/13 03:48:21;;;;;;;2.25;0.50;;;8.90;69.10;;;;;;4972455;28;20022;-73
2023/01/13 03:50:53;;;;;;;1.63;0.25;;;8.90;69.40;;;;;;4972322;28;20054;-73
2023/01/13 03:53:34;;;;;;;1.17;0.30;;;8.90;69.00;;;;;;4974098;28;20037;-73
2023/01/13 03:56:34;;;;;;;0.47;0.10;;;8.80;68.90;;;;;;4975222;28;20042;-73
2023/01/13 03:59:03;;;;;;;2.15;0.30;;;8.80;69.00;;;;;;4991572;28;20030;-73
2023/01/13 04:01:41;;;;;;;2.13;0.40;;;8.90;68.80;;;;;;4975535;28;20036;-74
2023/01/13 04:04:11;;;;;;;1.27;0.20;;;8.90;68.90;;;;;;4975133;28;20502;-74
2023/01/13 04:07:06;;;;;;;1.23;0.32;;;8.80;69.90;;;;;;4975064;28;20029;-76
2023/01/13 04:09:49;;;;;;;0.93;0.35;;;8.80;69.00;;;;;;4992513;28;20041;-74
2023/01/13 04:15:21;;;;;;;1.55;0.30;;;8.70;69.30;;;;;;4992783;28;20129;-74
2023/01/13 04:17:46;;;;;;;1.08;0.30;;;8.70;69.50;;;;;;4974964;28;20472;-74
2023/01/13 04:20:12;;;;;;;0.47;0.10;;;8.70;69.90;;;;;;4975007;28;20041;-73
2023/01/13 04:22:37;;;;;;;0.98;0.20;;;8.70;70.10;;;;;;4974851;28;20535;-75
2023/01/13 04:25:04;;;;;;;0.10;0.00;;;8.70;70.20;;;;;;4975185;28;20514;-75
2023/01/13 04:27:29;;;;;;;0.30;0.10;;;8.70;70.20;;;;;;4974750;28;20041;-77
2023/01/13 04:29:55;;;;;;;1.10;0.28;;;8.70;70.30;;;;;;4974978;28;20018;-74
2023/01/13 04:32:21;;;;;;;1.65;0.20;;;8.70;70.40;;;;;;4992231;28;20027;-76
2023/01/13 04:34:46;;;;;;;0.60;0.13;;;8.70;70.50;;;;;;4974946;28;20102;-75
2023/01/13 04:37:13;;;;;;;0.32;0.10;;;8.70;70.60;;;;;;4974748;28;20025;-76
2023/01/13 04:39:39;;;;;;;1.00;0.03;;;8.70;70.80;;;;;;4958599;28;20372;-75
2023/01/13 04:42:04;;;;;;;0.55;0.20;;;8.60;70.80;;;;;;4974610;28;20033;-75
2023/01/13 04:44:34;;;;;;;0.52;0.10;;;8.60;71.00;;;;;;4991322;28;20026;-75
2023/01/13 04:47:03;;;;;;;1.83;0.20;;;8.60;71.20;;;;;;4982126;28;20033;-74
2023/01/13 04:49:29;;;;;;;0.63;0.40;;;8.50;71.40;;;;;;4981825;28;20046;-75
2023/01/13 04:51:54;;;;;;;0.32;0.30;;;8.50;71.60;;;;;;4979794;28;20030;-75
2023/01/13 04:54:20;;;;;;;0.68;0.50;;;8.50;71.60;;;;;;4983731;28;20053;-75
2023/01/13 04:56:45;;;;;;;3.28;0.40;;;8.50;71.70;;;;;;4991652;28;20046;-79
2023/01/13 04:59:12;;;;;;;4.30;0.30;;;8.60;71.50;;;;;;4983314;28;20026;-77
2023/01/13 05:01:38;;;;;;;1.85;0.20;;;8.60;71.60;;;;;;4993253;28;20547;-74
2023/01/13 05:04:05;;;;;;;0.75;0.40;;;8.60;71.70;;;;;;4976253;28;20027;-77
2023/01/13 05:06:31;;;;;;;1.15;0.40;;;8.50;71.70;;;;;;4994415;28;20034;-76
2023/01/13 05:08:58;;;;;;;0.25;0.15;;;8.60;71.80;;;;;;4992238;28;20501;-80
2023/01/13 05:17:00;;;;;;;1.67;0.17;;;8.50;72.30;;;;;;4992603;28;20037;-83
2023/01/13 05:19:27;;;;;;;1.25;0.20;;;8.60;72.30;;;;;;4974092;28;20087;-81
2023/01/13 05:27:21;;;;;;;0.40;0.08;;;8.60;72.80;;;;;;4991543;28;20125;-75
2023/01/13 05:29:47;;;;;;;0.50;0.10;;;8.50;73.00;;;;;;4973862;28;20015;-75
2023/01/13 05:32:12;;;;;;;0.10;0.08;;;8.50;73.60;;;;;;4974010;28;20099;-75
2023/01/13 05:34:38;;;;;;;0.70;0.10;;;8.50;73.60;;;;;;4973918;28;20080;-76
2023/01/13 05:37:06;;;;;;;0.65;0.00;;;8.40;73.60;;;;;;4974043;28;20466;-78
2023/01/13 05:43:18;;;;;;;0.32;0.10;;;8.50;73.70;;;;;;4974152;28;20462;-81
2023/01/13 05:45:03;;;;;;;0.28;0.20;;;8.50;73.20;;;;;;4991358;28;20130;-83
2023/01/13 05:47:28;;;;;;;0.10;0.10;;;8.50;73.30;;;;;;4973707;28;20471;-82
2023/01/13 05:49:55;;;;;;;1.35;0.20;;;8.50;73.40;;;;;;4989720;28;20031;-75
2023/01/13 05:52:21;;;;;;;0.22;0.20;;;8.50;73.50;;;;;;4989424;28;20022;-78
2023/01/13 05:54:46;;;;;;;1.10;0.10;;;8.50;73.60;;;;;;4990268;28;20085;-75
2023/01/13 05:57:12;;;;;;;0.15;0.08;;;8.50;73.70;;;;;;4990365;28;20030;-74
2023/01/13 05:59:37;;;;;;;1.27;0.10;;;8.50;74.50;;;;;;4989948;28;20360;-74
2023/01/13 06:02:03;;;;;;;0.63;0.45;;;8.50;73.90;;;;;;4991238;28;20070;-76
2023/01/13 06:04:28;;;;;;;0.30;0.10;;;8.50;73.80;;;;;;4990944;28;20097;-79
2023/01/13 06:06:54;;;;;;;0.08;0.00;;;8.50;73.70;;;;;;5071512;28;20024;-78
2023/01/13 06:09:21;;;;;;;0.20;0.20;;;8.50;73.70;;;;;;5073133;28;20074;-80
2023/01/13 06:11:47;;;;;;;0.52;0.13;;;8.50;73.80;;;;;;5055030;28;20100;-75
2023/01/13 06:14:13;;;;;;;0.47;0.15;;;8.50;73.70;;;;;;5054193;28;20066;-78
2023/01/13 06:16:38;;;;;;;0.93;0.30;;;8.50;73.80;;;;;;5054674;28;20031;-81
2023/01/13 06:19:07;;;;;;;1.55;0.40;;;8.40;73.80;;;;;;5054478;28;20031;-78
2023/01/13 06:21:34;;;;;;;0.43;0.20;;;8.40;74.00;;;;;;5072573;28;20054;-78
2023/01/13 06:24:00;;;;;;;0.40;0.10;;;8.40;74.20;;;;;;5055085;28;20132;-79
2023/01/13 06:26:29;;;;;;;0.22;0.13;;;8.40;74.40;;;;;;5073754;28;20036;-79
2023/01/13 06:28:55;;;;;;;0.10;0.10;;;8.30;74.50;;;;;;5073965;28;20069;-76
2023/01/13 06:31:21;;;;;;;0.65;0.20;;;8.30;74.50;;;;;;5073309;28;20444;-76
2023/01/13 06:33:52;;;;;;;0.05;0.05;;;8.30;74.50;;;;;;5073151;28;20047;-76
2023/01/13 06:36:25;;;;;;;0.22;0.00;;;8.40;74.40;;;;;;5054796;28;20448;-76
2023/01/13 06:38:54;;;;;;;0.43;0.10;;;8.40;74.30;;;;;;5055176;28;20036;-76
2023/01/13 06:43:13;;;;;;;0.40;0.10;;;8.40;74.40;;;;;;5084867;28;20021;-76
2023/01/13 06:44:06;;;;;;;;;;;8.40;74.30;;;;;;5086305;28;20465;-78
2023/01/13 06:46:31;;;;;;;;;;;8.40;74.20;;;;;;5083223;28;19911;-84
2023/01/13 06:48:57;;;;;;;0.40;0.20;;;8.40;74.20;;;;;;5072746;28;20378;-82
2023/01/13 06:51:22;;;;;;;1.17;0.30;;;8.50;74.20;;;;;;5072855;28;20024;-85
2023/01/13 06:53:48;;;;;;;0.28;0.20;;;8.50;74.30;;;;;;5038566;28;20140;-78
2023/01/13 06:56:13;;;;;;;0.57;0.20;;;8.40;74.40;;;;;;5055713;28;20017;-83
2023/01/13 06:58:42;;;;;;;0.20;0.10;;;8.50;74.80;;;;;;5056450;28;20086;-76
2023/01/13 07:01:07;;;;;;;1.38;0.25;;;8.40;74.90;;;;;;5073907;28;20465;-79
2023/01/13 07:03:33;;;;;;;0.38;0.20;;;8.40;74.90;;;;;;5014544;28;20038;-77
2023/01/13 07:06:00;;;;;;;0.93;0.10;;;8.40;75.00;;;;;;4954547;28;20031;-87
2023/01/13 07:08:27;;;;;;;0.22;0.20;;;8.40;75.00;;;;;;4957588;28;20045;-83
2023/01/13 07:10:54;;;;;;;0.25;0.10;;;8.40;75.40;;;;;;4957330;28;20035;-79
2023/01/13 07:16:05;;;;;;;0.10;0.10;;;8.70;74.40;;;;;;4974717;28;20038;-78
2023/01/13 07:18:32;;;;;;;1.67;0.30;;;8.70;74.40;;;;;;4974641;28;20372;-82
2023/01/13 07:21:03;;;;;;;0.43;0.28;;;8.80;74.10;;;;;;4957484;28;20030;-84
2023/01/13 07:23:34;;;;;;;0.30;0.10;;;8.80;73.50;;;;;;4974229;28;20399;-79
2023/01/13 07:26:00;;;;;;;0.73;0.30;;;8.80;73.40;;;;;;4972593;28;20031;-77
2023/01/13 07:28:29;;;;;;;2.13;0.30;;;8.70;73.80;;;;;;4982581;28;20034;-84
2023/01/13 07:30:56;;;;;;;0.73;0.30;;;8.80;74.10;;;;;;4983464;28;20026;-80
2023/01/13 07:33:22;;;;;;;0.57;0.15;;;8.70;74.60;;;;;;4990105;28;20078;-74
2023/01/13 07:35:54;;;;;;;1.02;0.10;;;8.70;74.80;;;;;;4985377;28;20019;-75
2023/01/13 07:38:19;;;;;;;0.47;0.10;;;8.60;74.90;;;;;;4964064;28;20026;-75
2023/01/13 07:40:45;;;;;;;0.85;0.40;;;8.60;75.10;;;;;;4983916;28;20042;-75
2023/01/13 07:43:32;;;;;;;0.30;0.10;;;8.60;75.40;;;;;;4956684;28;20027;-74
2023/01/13 07:46:03;;;;;;;0.55;0.20;;;8.50;75.50;;;;;;4973061;28;20027;-77
2023/01/13 07:48:30;;;;;;;1.10;0.30;;;8.60;75.50;;;;;;4940366;28;20037;-84
2023/01/13 07:51:01;;;;;;;0.65;0.30;;;8.50;75.50;;;;;;4956031;28;20023;-76
2023/01/13 07:53:28;;;;;;;1.00;0.20;;;8.60;75.50;;;;;;4955459;28;20605;-75
2023/01/13 07:55:56;;;;;;;0.35;0.22;;;8.50;75.60;;;;;;4973386;28;20023;-76
2023/01/13 07:58:21;;;;;;;3.40;0.20;;;8.60;75.60;;;;;;4956221;28;20029;-76
2023/01/13 08:00:47;;;;;;;1.60;0.20;;;8.50;75.60;;;;;;4955689;28;20033;-74
2023/01/13 08:03:12;;;;;;;0.45;0.10;;;8.60;75.40;;;;;;4956036;28;20433;-83
2023/01/13 08:05:38;;;;;;;0.00;0.00;;;8.60;75.30;;;;;;4956024;28;20027;-75
2023/01/13 08:08:04;;;;;;;0.30;0.10;;;8.60;75.30;;;;;;4955907;28;20030;-79
2023/01/13 08:10:30;;;;;;;1.45;0.10;;;8.60;75.20;;;;;;4958506;28;20027;-84
2023/01/13 08:15:39;;;;;;;0.25;0.20;;;8.60;75.10;;;;;;4973035;28;20046;-76
2023/01/13 08:18:05;;;;;;;0.52;0.30;;;8.60;75.20;;;;;;4955617;28;20027;-77
2023/01/13 08:20:30;;;;;;;0.03;0.03;;;8.70;75.50;;;;;;4955914;28;20031;-75
2023/01/13 08:22:57;;;;;;;0.00;0.00;;;8.70;75.70;;;;;;4956200;28;20023;-78
2023/01/13 08:25:23;;;;;;;0.10;0.10;;;8.70;75.30;;;;;;4973244;28;20406;-81
2023/01/13 08:27:49;;;;;;;1.02;0.20;;;8.70;75.00;;;;;;4972806;28;20019;-77
2023/01/13 08:30:15;;;;;;;0.00;0.00;;;8.70;74.90;;;;;;4972988;28;20428;-81
2023/01/13 08:32:45;;;;;;;0.20;0.03;;;8.90;74.80;;;;;;4955601;28;20031;-84
2023/01/13 08:35:12;;;;;;;1.30;0.35;;;8.90;75.20;;;;;;4956270;28;20051;-86
2023/01/13 08:37:38;;;;;;;1.35;0.13;;;8.90;76.00;;;;;;4956214;28;20031;-87
2023/01/13 08:40:04;;;;;;;0.28;0.10;;;8.80;76.40;;;;;;4955974;28;20023;-80
2023/01/13 08:42:30;;;;;;;0.13;0.10;;;8.80;77.00;;;;;;4973101;28;20062;-82
2023/01/13 08:44:56;;;;;;;0.13;0.10;;;8.70;78.50;;;;;;4973479;28;20027;-77
2023/01/13 08:47:23;;;;;;;0.30;0.10;;;8.60;80.70;;;;;;4939616;28;20026;-80
2023/01/13 08:49:48;;;;;;;0.43;0.10;;;8.60;79.80;;;;;;4955399;28;20076;-73
2023/01/13 08:52:14;;;;;;;0.40;0.20;;;8.50;80.20;;;;;;4955190;28;20031;-73
2023/01/13 08:54:40;;;;;;;0.28;0.20;;;8.50;80.40;;;;;;4951875;28;20534;-73
2023/01/13 08:57:06;;;;;;;0.50;0.30;;;8.40;80.40;;;;;;4952179;28;20059;-73
2023/01/13 08:59:33;;;;;;;0.77;0.30;;;8.40;81.00;;;;;;4951841;28;20027;-74
2023/01/13 09:01:58;;;;;;;0.57;0.10;;;8.30;82.10;;;;;;4952290;28;20024;-74
2023/01/13 09:04:26;;;;;;;0.45;0.20;;;8.30;81.50;;;;;;4952309;28;20392;-73
2023/01/13 09:06:54;;;;;;;0.60;0.38;;;8.20;82.70;;;;;;4952185;28;20092;-73
2023/01/13 09:09:20;;;;;;;2.90;1.52;;;8.30;82.30;;;;;;4951983;28;20031;-76
2023/01/13 09:14:34;;;;;;;3.13;1.67;;;8.30;82.20;;;;;;4952948;29;20042;-75
2023/01/13 09:17:00;;;;;;;0.77;0.55;;;8.30;82.20;;;;;;4952142;28;20403;-74
2023/01/13 09:19:27;;;;;;;0.28;0.20;;;8.50;80.90;;;;;;4951667;28;20043;-74
2023/01/13 09:21:53;;;;;;;0.22;0.10;;;8.50;81.50;;;;;;4951712;28;20050;-79
2023/01/13 09:24:19;;;;;;;0.75;0.45;;;8.50;80.70;;;;;;4952388;28;20046;-87
2023/01/13 09:26:45;;;;;;;0.93;0.45;;;8.60;80.60;;;;;;4951926;28;20023;-73
2023/01/13 09:29:11;;;;;;;0.20;0.20;;;8.60;80.10;;;;;;4950793;28;20027;-76
2023/01/13 09:31:36;;;;;;;0.57;0.28;;;8.70;79.70;;;;;;4950859;28;20121;-73
2023/01/13 09:36:48;;;;;;;0.80;0.40;;;8.80;79.30;;;;;;4972571;28;20108;-73
2023/01/13 09:39:14;;;;;;;0.28;0.10;;;8.80;79.50;;;;;;4978547;28;20031;-74
2023/01/13 09:44:56;;;;;;;3.95;0.30;;;8.80;80.20;;;;;;4972359;28;20092;-72
2023/01/13 09:47:29;;;;;;;0.60;0.10;;;8.70;81.40;;;;;;4970631;28;20023;-78
2023/01/13 09:50:03;;;;;;;0.25;0.20;;;8.70;81.10;;;;;;4970693;28;20046;-73
2023/01/13 09:52:29;;;;;;;0.40;0.17;;;8.70;81.00;;;;;;4970715;28;20034;-74
2023/01/13 09:55:05;;;;;;;0.20;0.20;;;8.60;80.80;;;;;;4970760;28;20051;-73
2023/01/13 09:57:35;;;;;;;0.40;0.20;;;8.60;81.50;;;;;;4970685;28;20115;-73
2023/01/13 10:00:02;;;;;;;0.95;0.30;;;8.70;80.70;;;;;;4970827;28;20134;-73
2023/01/13 10:02:55;;;;;;;0.20;0.20;;;8.70;80.20;;;;;;4970369;28;20023;-72
2023/01/13 10:05:36;;;;;;;0.60;0.40;;;8.70;79.60;;;;;;4971159;28;20566;-72
2023/01/13 10:08:09;;;;;;;1.05;0.47;;;8.80;79.90;;;;;;4975031;28;20042;-73
2023/01/13 10:10:37;;;;;;;1.08;0.75;;;8.70;80.90;;;;;;4974908;28;20544;-81
2023/01/13 10:13:23;;;;;;;2.60;0.45;;;8.60;82.40;;;;;;4973185;28;20031;-73
2023/01/13 10:15:58;;;;;;;0.55;0.30;;;8.60;81.80;;;;;;4971220;28;20461;-74
2023/01/13 10:18:57;;;;;;;0.57;0.30;;;8.60;81.00;;;;;;4971171;28;20534;-72
2023/01/13 10:21:46;;;;;;;0.30;0.13;;;8.70;80.40;;;;;;4970216;28;20034;-75
2023/01/13 10:24:39;;;;;;;0.55;0.30;;;8.60;80.80;;;;;;4969955;28;20019;-73
2023/01/13 10:27:33;;;;;;;0.70;0.20;;;8.70;80.80;;;;;;4949900;28;20035;-74
2023/01/13 10:30:09;;;;;;;0.32;0.20;;;8.70;79.70;;;;;;4969279;28;20031;-73
2023/01/13 10:32:35;;;;;;;1.48;0.28;;;8.70;79.90;;;;;;4969626;28;20030;-73
2023/01/13 10:35:01;;;;;;;4.22;0.40;;;8.80;78.80;;;;;;4970618;28;20023;-74
2023/01/13 10:37:27;;;;;;;0.30;0.20;;;9.00;78.80;;;;;;4969777;28;20015;-77
2023/01/13 10:39:54;;;;;;;0.30;0.20;;;9.10;78.10;;;;;;4991417;28;20085;-76
2023/01/13 10:42:22;;;;;;;1.70;0.20;;;9.60;76.60;;;;;;5026287;28;20032;-76
2023/01/13 10:44:59;;;;;;;0.30;0.30;;;10.20;74.70;;;;;;5054457;28;20112;-75
2023/01/13 10:47:35;;;;;;;0.77;0.30;;;10.30;72.80;;;;;;5055088;28;20397;-76
2023/01/13 10:50:28;;;;;;;0.50;0.30;;;10.40;71.70;;;;;;5055430;28;20021;-85
2023/01/13 10:52:57;;;;;;;1.05;0.17;;;10.70;70.20;;;;;;5053350;28;20102;-74
2023/01/13 10:55:32;;;;;;;0.25;0.20;;;10.80;68.60;;;;;;5054293;28;20052;-75
2023/01/13 10:58:17;;;;;;;1.40;0.28;;;11.00;67.80;;;;;;5055075;28;20025;-85
2023/01/13 11:00:43;;;;;;;0.73;0.30;;;11.30;65.60;;;;;;5054801;28;20048;-75
2023/01/13 11:03:21;;;;;;;2.03;0.40;;;11.30;64.30;;;;;;5054679;28;20021;-75
2023/01/13 11:05:58;;;;;;;1.00;0.20;;;11.30;64.80;;;;;;5055193;28;20021;-82
2023/01/13 11:08:30;;;;;;;1.02;0.35;;;11.30;63.50;;;;;;5056639;28;20025;-82
2023/01/13 11:10:57;;;;;;;0.65;0.20;;;11.10;62.30;;;;;;5055393;28;20028;-75
2023/01/13 11:14:31;;;;;;;0.38;0.17;;;11.10;61.80;;;;;;5003189;28;20055;-73
2023/01/13 11:16:27;;;;;;;2.35;0.20;;;10.80;59.90;;;;;;4953328;28;20122;-74
2023/01/13 11:19:01;;;;;;;0.52;0.20;;;10.60;60.60;;;;;;4952716;28;20085;-79
2023/01/13 11:21:45;;;;;;;0.52;0.20;;;10.90;61.10;;;;;;4952794;28;20077;-75
2023/01/13 11:24:36;;;;;;;0.10;0.10;;;11.30;58.80;;;;;;4953036;28;20118;-74
2023/01/13 11:27:18;;;;;;;0.65;0.35;;;11.50;58.80;;;;;;4952933;28;20023;-73
2023/01/13 11:29:53;;;;;;;0.30;0.20;;;11.70;56.60;;;;;;4953577;28;20031;-75
2023/01/13 11:32:22;;;;;;;1.33;0.13;;;11.70;57.20;;;;;;4954822;28;20154;-80
2023/01/13 11:34:54;;;;;;;0.32;0.22;;;11.50;57.50;;;;;;4953409;28;20073;-75
2023/01/13 11:37:50;;;;;;;0.55;0.10;;;10.90;60.70;;;;;;4953154;28;20033;-82
2023/01/13 11:40:44;;;;;;;2.90;0.50;;;10.40;62.00;;;;;;4953635;28;20044;-75
2023/01/13 11:43:49;;;;;;;2.30;0.30;;;10.10;63.80;;;;;;4953090;28;20035;-77
2023/01/13 11:46:15;;;;;;;0.60;0.22;;;9.90;64.50;;;;;;4994679;28;20035;-80
2023/01/13 11:48:42;;;;;;;0.88;0.40;;;9.90;64.00;;;;;;4949724;28;20484;-79
2023/01/13 11:51:13;;;;;;;1.38;0.30;;;9.90;64.60;;;;;;4952665;28;20023;-74
2023/01/13 11:53:51;;;;;;;1.20;0.30;;;9.00;63.30;;;;;;4958877;28;20053;-78
2023/01/13 11:56:58;;;;;;;1.85;0.20;;;7.90;68.10;;;;;;4973690;28;20071;-85
2023/01/13 11:59:35;;;;;;;1.63;0.30;;;7.10;72.90;;;;;;4975507;28;20046;-73
2023/01/13 12:02:25;;;;;;;1.00;0.50;;;6.40;78.50;;;;;;4972840;28;20026;-85
2023/01/13 12:05:09;;;;;;;1.33;0.38;;;5.90;80.60;;;;;;5034479;28;20016;-81
2023/01/13 12:08:11;;;;;;;1.42;0.50;;;5.80;80.10;;;;;;5075511;28;20082;-84
2023/01/13 12:10:58;;;;;;;1.50;0.40;;;5.60;81.70;;;;;;5058907;28;20016;-75
2023/01/13 12:13:40;;;;;;;5.57;0.68;;;5.50;81.40;;;;;;5059780;28;20523;-76
2023/01/13 12:16:18;;;;;;;2.17;0.55;;;5.40;80.50;;;;;;5056880;28;20033;-76
2023/01/13 12:19:31;;;;;;;7.68;0.80;;;5.50;79.20;;;;;;5056883;28;20028;-77
2023/01/13 12:22:11;;;;;;;6.60;1.02;;;5.50;80.00;;;;;;5070355;28;20040;-81
2023/01/13 12:24:52;;;;;;;2.58;0.73;;;5.50;78.80;;;;;;5040010;28;20028;-78
2023/01/13 12:27:40;;;;;;;4.90;1.38;;;5.60;77.20;;;;;;4955616;28;20031;-77
2023/01/13 12:30:30;;;;;;;4.03;0.68;;;5.80;77.40;;;;;;4955490;28;20019;-80
2023/01/13 12:33:03;;;;;;;3.67;0.50;;;5.70;78.40;;;;;;4972704;28;20035;-77
2023/01/13 12:36:05;;;;;;;3.10;0.50;;;5.80;78.60;;;;;;4955700;28;20391;-79
2023/01/13 12:38:57;;;;;;;3.08;0.80;;;5.90;79.40;;;;;;4957401;28;20039;-79
2023/01/13 12:44:42;;;;;;;1.48;0.43;;;6.10;79.40;;;;;;4973667;28;20083;-80
2023/01/13 12:47:42;;;;;;;0.77;0.40;;;8.20;76.00;;;;;;4956189;28;20395;-78
2023/01/13 12:50:26;;;;;;;4.90;0.50;;;10.40;64.80;;;;;;4954999;28;20396;-79
2023/01/13 12:52:56;;;;;;;0.32;0.32;;;13.30;54.20;;;;;;4950290;28;20034;-78
2023/01/13 12:55:29;;;;;;;1.50;0.30;;;14.80;47.60;;;;;;4951574;28;20047;-82
2023/01/13 12:58:06;;;;;;;0.63;0.30;;;15.30;44.00;;;;;;4952452;28;20059;-83
2023/01/13 13:00:38;;;;;;;1.50;0.57;;;15.70;43.40;;;;;;4952295;28;20430;-78
2023/01/13 13:03:09;;;;;;;0.73;0.45;;;17.60;39.50;;;;;;4950611;28;20511;-84
2023/01/13 13:05:59;;;;;;;0.70;0.38;;;20.10;35.40;;;;;;4951686;28;20027;-82
2023/01/13 13:08:37;;;;;;;2.22;1.02;;;20.90;32.70;;;;;;4951654;29;20027;-85
2023/01/13 13:13:16;;;;;;;0.82;0.63;;;22.00;30.10;;;;;;4952834;28;20023;-83
2023/01/13 13:14:03;;;;;;;2.55;0.65;;;22.00;29.30;;;;;;4952878;28;20042;-84
2023/01/13 13:16:29;;;;;;;1.95;0.63;;;20.80;31.60;;;;;;4951884;28;20114;-82
2023/01/13 13:19:16;;;;;;;1.38;0.50;;;19.00;33.80;;;;;;4952707;28;20448;-77
2023/01/13 13:22:15;;;;;;;0.63;0.50;;;17.00;38.70;;;;;;4951953;28;20030;-75
2023/01/13 13:24:58;;;;;;;1.73;0.77;;;15.40;43.60;;;;;;4951713;28;20472;-75
2023/01/13 13:27:30;;;;;;;1.58;0.38;;;15.30;44.90;;;;;;4951503;28;20031;-75
2023/01/13 13:29:58;;;;;;;1.20;0.52;;;17.50;40.50;;;;;;4951276;28;20122;-77
2023/01/13 13:32:41;;;;;;;1.10;0.40;;;18.70;37.00;;;;;;4951123;28;20024;-78
2023/01/13 13:35:50;;;;;;;2.00;0.70;;;20.70;33.80;;;;;;4951789;28;20036;-76
2023/01/13 13:47:34;;;;;;;1.47;0.70;;;24.80;22.70;;;;;;4952485;29;20030;-83
2023/01/13 13:50:05;;;;;;;1.40;0.60;;;22.30;27.80;;;;;;4952072;28;20270;-79
2023/01/13 13:52:44;;;;;;;1.20;0.80;;;20.40;30.70;;;;;;4951247;28;20028;-81
2023/01/13 13:55:23;;;;;;;0.73;0.55;;;19.00;34.00;;;;;;4946356;28;20047;-84
2023/01/13 13:57:51;;;;;;;1.98;0.60;;;18.00;36.90;;;;;;4950986;28;20024;-84
2023/01/13 14:00:22;;;;;;;2.42;0.85;;;17.40;39.80;;;;;;4951100;28;20382;-83
2023/01/13 14:02:51;;;;;;;2.20;1.40;;;18.40;37.50;;;;;;4951102;28;20046;-86
2023/01/13 14:05:19;;;;;;;2.53;1.80;;;17.90;37.70;;;;;;4951121;28;20023;-82
2023/01/13 14:07:47;;;;;;;2.08;1.23;;;18.90;37.40;;;;;;4950918;28;20054;-84
2023/01/13 14:10:27;;;;;;;3.17;0.60;;;18.90;35.70;;;;;;4952663;28;20434;-78
2023/01/13 14:12:53;;;;;;;3.63;1.42;;;17.10;36.80;;;;;;4952125;28;20176;-83
2023/01/13 14:15:30;;;;;;;1.10;0.63;;;14.80;42.90;;;;;;5033085;28;20127;-79
2023/01/13 14:17:57;;;;;;;2.55;0.90;;;12.70;48.60;;;;;;5055954;28;20025;-80
2023/01/13 14:20:23;;;;;;;4.03;0.93;;;12.10;51.50;;;;;;5056147;28;20362;-77